Time;durP1;ratioP1;P1;durP2;ratioP2;P2;SDS_P1;SDS_P2;PMS_P1;PMS_P2;Temp;Humidity;BMP_temperature;BMP_pressure;BME280_temperature;BME280_humidity;BME280_pressure;Samples;Min_cycle;Max_cycle;Signal;HPM_P1;HPM_P2
2023/10/25 00:00:41;;;;;;;9.00;3.85;;;;;;;9.84;84.27;100113.47;5078622;28;20028;-70
2023/10/25 00:03:10;;;;;;;7.18;3.97;;;;;;;9.83;84.62;100109.97;5081640;28;20514;-70
2023/10/25 00:05:35;;;;;;;9.10;4.07;;;;;;;9.80;83.89;100109.28;5082619;28;20055;-70
2023/10/25 00:08:00;;;;;;;7.57;4.07;;;;;;;9.79;84.38;100103.16;5081484;28;20487;-70
2023/10/25 00:10:26;;;;;;;8.60;3.95;;;;;;;9.78;84.53;100113.75;5078778;28;20040;-70
2023/10/25 00:12:51;;;;;;;7.00;3.58;;;;;;;9.76;84.59;100105.94;5077727;28;20130;-70
2023/10/25 00:15:17;;;;;;;9.68;4.07;;;;;;;9.71;84.95;100106.16;5080221;28;20089;-70
2023/10/25 00:17:42;;;;;;;4.50;3.40;;;;;;;9.66;84.68;100097.59;5080920;28;20482;-70
2023/10/25 00:20:07;;;;;;;6.65;3.83;;;;;;;9.68;84.85;100095.72;5082283;28;20035;-70
2023/10/25 00:22:33;;;;;;;9.52;4.25;;;;;;;9.64;84.24;100090.69;5078391;28;20115;-70
2023/10/25 00:24:58;;;;;;;4.72;3.15;;;;;;;9.62;84.56;100088.13;5080204;28;20027;-70
2023/10/25 00:27:23;;;;;;;7.50;3.30;;;;;;;9.56;84.51;100085.78;5081051;28;20020;-70
2023/10/25 00:29:49;;;;;;;9.88;3.70;;;;;;;9.50;83.79;100091.34;5079012;28;20142;-70
2023/10/25 00:32:17;;;;;;;6.85;3.20;;;;;;;9.47;84.82;100090.66;5077922;28;20473;-70
2023/10/25 00:34:42;;;;;;;5.35;3.50;;;;;;;9.39;84.09;100093.66;5079980;28;20020;-70
2023/10/25 00:37:07;;;;;;;6.38;2.83;;;;;;;9.32;83.75;100092.22;5082044;28;20475;-70
2023/10/25 00:39:33;;;;;;;5.90;4.72;;;;;;;9.28;83.80;100095.91;5083052;28;20033;-70
2023/10/25 00:41:58;;;;;;;5.93;3.30;;;;;;;9.26;84.42;100100.41;5083943;28;20028;-70
2023/10/25 00:44:25;;;;;;;14.45;4.60;;;;;;;9.23;84.34;100101.41;5085164;28;20469;-70
2023/10/25 00:46:50;;;;;;;6.72;2.85;;;;;;;9.14;83.80;100097.44;5084776;28;20447;-71
2023/10/25 00:49:17;;;;;;;5.75;3.08;;;;;;;9.15;85.14;100088.59;5085344;28;20527;-70
2023/10/25 00:51:42;;;;;;;4.90;2.90;;;;;;;9.21;86.15;100087.44;5083611;28;20028;-70
2023/10/25 00:54:08;;;;;;;4.50;2.85;;;;;;;9.19;85.40;100092.81;5077147;28;20027;-70
2023/10/25 00:56:34;;;;;;;4.30;2.78;;;;;;;9.14;85.64;100101.84;5085228;28;20376;-70
2023/10/25 00:59:00;;;;;;;5.30;2.85;;;;;;;9.13;85.68;100093.06;5083276;28;20043;-70
2023/10/25 01:01:29;;;;;;;4.00;2.50;;;;;;;9.18;86.36;100091.06;5078417;28;20549;-71
2023/10/25 01:03:55;;;;;;;3.03;2.42;;;;;;;9.25;85.81;100085.53;5082552;28;20049;-70
2023/10/25 01:06:21;;;;;;;4.18;2.60;;;;;;;9.23;86.10;100077.66;5084909;28;20387;-70
2023/10/25 01:08:48;;;;;;;4.13;2.75;;;;;;;9.19;86.37;100081.41;5084770;28;20028;-70
2023/10/25 01:11:14;;;;;;;4.35;2.88;;;;;;;9.18;85.61;100085.78;5077649;28;20031;-70
2023/10/25 01:13:40;;;;;;;9.45;3.03;;;;;;;9.18;86.05;100079.66;5081277;28;20075;-70
2023/10/25 01:16:05;;;;;;;7.43;2.92;;;;;;;9.17;86.36;100077.97;5082073;28;20107;-70
2023/10/25 01:18:31;;;;;;;6.30;2.72;;;;;;;9.15;85.52;100072.78;5086073;28;20032;-70
2023/10/25 01:20:56;;;;;;;4.90;2.67;;;;;;;9.12;84.73;100075.53;5081062;28;20025;-70
2023/10/25 01:23:22;;;;;;;4.32;2.53;;;;;;;9.07;84.76;100067.00;5080974;28;20028;-70
2023/10/25 01:25:47;;;;;;;4.32;2.28;;;;;;;9.03;84.88;100062.78;5078105;28;20023;-70
2023/10/25 01:28:13;;;;;;;8.18;2.92;;;;;;;8.96;84.29;100071.91;5083526;28;20070;-70
2023/10/25 01:30:39;;;;;;;6.18;2.67;;;;;;;8.96;85.24;100061.38;5080878;28;20032;-70
2023/10/25 01:33:05;;;;;;;5.63;2.70;;;;;;;8.94;84.95;100052.66;5079757;28;20402;-70
2023/10/25 01:35:30;;;;;;;7.38;2.72;;;;;;;8.97;86.28;100052.53;5082383;28;20058;-70
2023/10/25 01:37:56;;;;;;;9.10;2.80;;;;;;;8.98;86.34;100050.75;5081615;28;20043;-70
2023/10/25 01:40:21;;;;;;;5.57;2.40;;;;;;;8.97;85.93;100041.13;5081157;28;20020;-70
2023/10/25 01:42:46;;;;;;;5.13;2.30;;;;;;;8.93;85.56;100040.41;5074393;28;20024;-70
2023/10/25 01:45:12;;;;;;;5.45;2.10;;;;;;;8.89;85.73;100037.06;5079572;28;20055;-70
2023/10/25 01:47:39;;;;;;;3.67;2.20;;;;;;;8.82;85.17;100035.63;5081258;28;20027;-70
2023/10/25 01:50:05;;;;;;;5.20;2.22;;;;;;;8.73;84.03;100024.66;5084577;28;20032;-70
2023/10/25 01:52:31;;;;;;;7.35;2.30;;;;;;;8.65;84.35;100031.13;5084805;28;20060;-70
2023/10/25 01:54:56;;;;;;;3.67;2.10;;;;;;;8.65;85.32;100028.50;5081234;28;20491;-70
2023/10/25 01:57:21;;;;;;;5.75;2.30;;;;;;;8.72;85.86;100021.19;5081267;28;20024;-70
2023/10/25 01:59:47;;;;;;;5.88;2.67;;;;;;;8.77;85.96;100018.34;5081369;28;20085;-70
2023/10/25 02:02:12;;;;;;;4.22;2.28;;;;;;;8.77;85.84;100019.19;5087933;28;20384;-70
2023/10/25 02:04:38;;;;;;;3.95;2.03;;;;;;;8.82;86.78;100017.19;5081159;28;20051;-70
2023/10/25 02:07:03;;;;;;;4.25;2.35;;;;;;;8.85;86.99;100009.13;5082658;28;20028;-70
2023/10/25 02:09:29;;;;;;;5.00;2.70;;;;;;;8.88;86.84;100010.78;5084259;28;20032;-70
2023/10/25 02:11:55;;;;;;;4.28;2.50;;;;;;;8.92;87.00;100009.72;5075489;28;20025;-70
2023/10/25 02:14:20;;;;;;;6.00;3.00;;;;;;;8.98;87.70;100008.56;5083720;28;20081;-70
2023/10/25 02:16:46;;;;;;;6.97;3.15;;;;;;;9.01;87.97;100005.78;5082873;28;20020;-70
2023/10/25 02:19:11;;;;;;;6.18;2.90;;;;;;;9.04;88.04;100001.19;5081351;28;20035;-70
2023/10/25 02:21:36;;;;;;;5.65;2.70;;;;;;;9.06;88.22;100001.16;5079148;28;20070;-70
2023/10/25 02:24:05;;;;;;;4.03;3.00;;;;;;;9.08;88.04;100004.56;5080707;28;20027;-70
2023/10/25 02:26:30;;;;;;;7.38;3.20;;;;;;;9.11;87.70;99997.38;5080362;28;20133;-70
2023/10/25 02:28:56;;;;;;;6.72;3.22;;;;;;;9.10;87.19;99994.81;5080874;28;20107;-70
2023/10/25 02:31:22;;;;;;;5.32;2.88;;;;;;;9.10;87.41;99990.38;5080128;28;20058;-70
2023/10/25 02:33:47;;;;;;;5.50;3.03;;;;;;;9.10;86.96;99982.47;5083933;28;20431;-70
2023/10/25 02:36:12;;;;;;;4.95;2.85;;;;;;;9.10;87.26;99987.75;5083735;28;20103;-70
2023/10/25 02:38:38;;;;;;;6.05;2.95;;;;;;;9.09;87.65;99980.78;5081988;28;20120;-70
2023/10/25 02:41:03;;;;;;;5.35;2.58;;;;;;;9.09;86.78;99975.50;5079686;28;20021;-70
2023/10/25 02:43:28;;;;;;;4.65;2.78;;;;;;;9.10;87.13;99974.56;5080680;28;20028;-70
2023/10/25 02:46:03;;;;;;;5.38;2.97;;;;;;;9.12;87.60;99969.22;5067385;28;20146;-70
2023/10/25 02:48:29;;;;;;;4.47;2.58;;;;;;;9.14;87.55;99965.59;5083660;28;20027;-70
2023/10/25 02:50:54;;;;;;;7.45;2.63;;;;;;;9.14;87.59;99975.28;5080023;28;20027;-70
2023/10/25 02:53:19;;;;;;;3.53;2.35;;;;;;;9.12;86.90;99963.94;5078770;28;20023;-70
2023/10/25 02:55:47;;;;;;;6.65;2.63;;;;;;;9.10;87.01;99969.28;5082573;28;20032;-70
2023/10/25 02:58:13;;;;;;;4.80;2.63;;;;;;;9.06;86.50;99966.88;5078642;28;20025;-70
2023/10/25 03:00:38;;;;;;;3.65;2.28;;;;;;;9.03;86.54;99954.69;5078368;28;20542;-70
2023/10/25 03:03:03;;;;;;;5.68;2.45;;;;;;;9.06;87.62;99948.41;5074155;28;20467;-70
2023/10/25 03:05:29;;;;;;;4.47;2.40;;;;;;;9.08;87.41;99946.56;5083143;28;20424;-70
2023/10/25 03:07:54;;;;;;;6.57;2.60;;;;;;;9.11;87.81;99943.78;5083307;28;20093;-70
2023/10/25 03:10:21;;;;;;;4.38;2.60;;;;;;;9.12;88.07;99938.41;5079823;28;20469;-70
2023/10/25 03:12:46;;;;;;;7.40;2.80;;;;;;;9.15;87.94;99935.66;5076578;28;20036;-70
2023/10/25 03:15:11;;;;;;;7.45;2.95;;;;;;;9.20;88.07;99930.16;5081518;28;20085;-70
2023/10/25 03:17:37;;;;;;;9.00;2.83;;;;;;;9.23;88.23;99926.47;5081303;28;20467;-70
2023/10/25 03:20:04;;;;;;;4.50;2.83;;;;;;;9.25;88.56;99922.84;5082903;28;20064;-69
2023/10/25 03:22:31;;;;;;;3.85;2.83;;;;;;;9.27;88.58;99922.78;5079140;28;20025;-69
2023/10/25 03:24:57;;;;;;;5.00;2.80;;;;;;;9.30;88.12;99920.84;5081074;28;20042;-69
2023/10/25 03:27:22;;;;;;;5.57;3.15;;;;;;;9.31;88.21;99916.41;5081666;28;20024;-69
2023/10/25 03:29:47;;;;;;;5.93;2.60;;;;;;;9.34;88.22;99922.41;5079708;28;20095;-69
2023/10/25 03:32:13;;;;;;;9.05;3.55;;;;;;;9.37;88.04;99914.34;5076347;28;20049;-69
2023/10/25 03:34:38;;;;;;;4.43;2.45;;;;;;;9.37;88.09;99906.44;5082560;28;20049;-69
2023/10/25 03:37:03;;;;;;;6.78;3.10;;;;;;;9.37;88.05;99909.06;5083121;28;20035;-69
2023/10/25 03:39:28;;;;;;;4.40;2.33;;;;;;;9.40;88.13;99908.91;5082286;28;20103;-69
2023/10/25 03:41:54;;;;;;;6.22;2.97;;;;;;;9.40;88.05;99914.16;5075304;28;20031;-69
2023/10/25 03:44:19;;;;;;;6.10;2.80;;;;;;;9.40;88.08;99902.78;5079912;28;20046;-69
2023/10/25 03:46:45;;;;;;;7.57;2.67;;;;;;;9.41;88.32;99901.84;5079861;28;20020;-69
2023/10/25 03:49:10;;;;;;;6.95;3.40;;;;;;;9.42;88.12;99908.84;5079757;28;20154;-69
2023/10/25 03:51:35;;;;;;;7.40;3.13;;;;;;;9.40;88.22;99905.41;5078530;28;20040;-69
2023/10/25 03:54:01;;;;;;;5.28;3.20;;;;;;;9.40;88.46;99887.78;5073856;28;20023;-69
2023/10/25 03:56:26;;;;;;;10.13;2.85;;;;;;;9.43;88.59;99892.06;5082707;28;20173;-69
2023/10/25 03:58:51;;;;;;;7.75;3.65;;;;;;;9.44;88.30;99891.97;5081418;28;20034;-69
2023/10/25 04:01:17;;;;;;;6.82;3.08;;;;;;;9.45;87.90;99892.84;5078855;28;20021;-69
2023/10/25 04:03:42;;;;;;;8.18;3.45;;;;;;;9.48;87.89;99889.19;5079306;28;20035;-69
2023/10/25 04:06:08;;;;;;;6.78;3.40;;;;;;;9.49;88.29;99898.81;5081772;28;20025;-69
2023/10/25 04:08:35;;;;;;;8.90;3.60;;;;;;;9.48;88.49;99884.78;5082473;28;20464;-69
2023/10/25 04:11:00;;;;;;;7.88;3.60;;;;;;;9.49;88.32;99890.91;5084238;28;20039;-69
2023/10/25 04:13:26;;;;;;;9.35;3.97;;;;;;;9.49;88.67;99886.47;5078815;28;20020;-69
2023/10/25 04:15:57;;;;;;;7.65;3.33;;;;;;;9.52;88.67;99890.75;5086291;28;20476;-69
2023/10/25 04:18:27;;;;;;;8.35;3.80;;;;;;;9.51;88.59;99881.97;5081766;28;20071;-69
2023/10/25 04:20:55;;;;;;;8.93;4.63;;;;;;;9.33;89.29;99875.84;5085830;28;20074;-69
2023/10/25 04:23:21;;;;;;;8.25;3.60;;;;;;;9.47;89.67;99885.72;5077478;28;20028;-69
2023/10/25 04:25:47;;;;;;;8.13;4.05;;;;;;;9.51;88.67;99883.75;5084245;28;20024;-69
2023/10/25 04:28:14;;;;;;;10.00;3.50;;;;;;;9.51;88.85;99884.59;5086357;28;20024;-69
2023/10/25 04:30:39;;;;;;;12.18;4.80;;;;;;;9.51;88.63;99874.03;5083918;28;20063;-70
2023/10/25 04:33:05;;;;;;;6.55;3.53;;;;;;;9.37;89.60;99873.91;5083113;28;20502;-70
2023/10/25 04:35:30;;;;;;;6.45;3.63;;;;;;;9.34;89.86;99884.63;5083942;28;20094;-70
2023/10/25 04:37:56;;;;;;;6.20;3.88;;;;;;;9.34;89.93;99880.19;5083596;28;20107;-70
2023/10/25 04:40:21;;;;;;;6.28;2.90;;;;;;;9.36;89.89;99869.56;5083889;28;20058;-70
2023/10/25 04:42:50;;;;;;;11.93;4.55;;;;;;;9.43;90.24;99874.47;5082327;28;20024;-70
2023/10/25 04:45:15;;;;;;;7.13;3.17;;;;;;;9.37;90.26;99869.50;5076323;28;20056;-70
2023/10/25 04:47:41;;;;;;;5.85;3.00;;;;;;;9.39;90.33;99872.91;5085614;28;20067;-70
2023/10/25 04:50:06;;;;;;;6.43;2.85;;;;;;;9.40;90.00;99866.69;5085621;28;20529;-70
2023/10/25 04:52:32;;;;;;;4.90;3.30;;;;;;;9.43;90.12;99863.06;5079962;28;20028;-70
2023/10/25 04:54:57;;;;;;;7.22;2.75;;;;;;;9.42;89.94;99854.28;5085813;28;20399;-70
2023/10/25 04:57:23;;;;;;;8.75;3.22;;;;;;;9.43;90.43;99853.34;5085576;28;20024;-70
2023/10/25 04:59:48;;;;;;;5.28;3.35;;;;;;;9.43;90.41;99853.34;5082960;28;20035;-70
2023/10/25 05:02:14;;;;;;;7.35;3.28;;;;;;;9.43;90.29;99845.44;5085613;28;20138;-70
2023/10/25 05:04:39;;;;;;;5.82;3.17;;;;;;;9.45;90.36;99837.44;5084502;28;20048;-70
2023/10/25 05:07:05;;;;;;;8.32;3.33;;;;;;;9.47;90.47;99830.31;5081964;28;20107;-70
2023/10/25 05:09:32;;;;;;;5.90;3.10;;;;;;;9.47;90.03;99829.47;5082294;28;20051;-70
2023/10/25 05:12:03;;;;;;;4.95;3.10;;;;;;;9.48;90.42;99821.47;5083674;28;20503;-70
2023/10/25 05:14:29;;;;;;;8.20;3.45;;;;;;;9.47;90.51;99827.66;5085411;28;20023;-70
2023/10/25 05:16:54;;;;;;;4.57;3.33;;;;;;;9.49;90.20;99819.66;5083886;28;20423;-70
2023/10/25 05:19:20;;;;;;;7.40;3.28;;;;;;;9.49;90.32;99817.88;5085208;28;20154;-70
2023/10/25 05:21:49;;;;;;;5.43;3.50;;;;;;;9.46;90.31;99807.47;5079375;28;20032;-70
2023/10/25 05:24:17;;;;;;;6.80;3.30;;;;;;;9.47;90.07;99808.34;5082173;28;20103;-70
2023/10/25 05:26:44;;;;;;;6.50;3.30;;;;;;;9.47;90.38;99793.38;5084975;28;20505;-70
2023/10/25 05:29:09;;;;;;;4.85;3.40;;;;;;;9.49;90.88;99796.78;5083350;28;20032;-70
2023/10/25 05:31:39;;;;;;;6.32;3.42;;;;;;;9.51;90.70;99797.53;5081114;28;20113;-70
2023/10/25 05:34:05;;;;;;;5.90;3.45;;;;;;;9.51;90.44;99797.53;5081905;28;20488;-70
2023/10/25 05:36:30;;;;;;;8.27;3.50;;;;;;;9.51;90.43;99792.25;5085257;28;20048;-70
2023/10/25 05:38:56;;;;;;;4.57;3.08;;;;;;;9.52;90.74;99793.97;5083609;28;20667;-70
2023/10/25 05:41:25;;;;;;;7.30;3.28;;;;;;;9.52;90.58;99786.06;5081530;28;20070;-69
2023/10/25 05:44:01;;;;;;;8.45;3.60;;;;;;;9.55;90.46;99791.16;5075120;28;20484;-69
2023/10/25 05:46:26;;;;;;;4.93;3.15;;;;;;;9.55;90.54;99785.88;5083561;28;20024;-69
2023/10/25 05:48:51;;;;;;;6.97;3.38;;;;;;;9.55;91.15;99783.25;5081417;28;20403;-69
2023/10/25 05:51:17;;;;;;;6.13;2.92;;;;;;;9.58;90.72;99783.09;5080887;28;20537;-69
2023/10/25 05:53:43;;;;;;;5.85;2.88;;;;;;;9.60;90.51;99783.00;5082113;28;20206;-69
2023/10/25 05:56:08;;;;;;;3.72;2.45;;;;;;;9.62;90.42;99775.88;5081401;28;20063;-69
2023/10/25 05:58:34;;;;;;;6.70;3.17;;;;;;;9.61;90.67;99771.53;5082288;28;20390;-69
2023/10/25 06:01:07;;;;;;;7.38;2.90;;;;;;;9.62;90.88;99774.09;5084023;28;20086;-69
2023/10/25 06:03:34;;;;;;;5.60;2.92;;;;;;;9.66;90.73;99775.63;5084140;28;20073;-69
2023/10/25 06:06:01;;;;;;;5.13;3.00;;;;;;;9.68;90.66;99772.91;5084483;28;20044;-69
2023/10/25 06:08:26;;;;;;;3.95;3.00;;;;;;;9.66;90.81;99774.78;5084290;28;20020;-69
2023/10/25 06:10:52;;;;;;;5.22;3.13;;;;;;;9.67;90.48;99769.41;5082108;28;20051;-69
2023/10/25 06:13:17;;;;;;;6.82;2.70;;;;;;;9.67;90.30;99766.78;5080524;28;20173;-69
2023/10/25 06:15:44;;;;;;;5.63;3.00;;;;;;;9.68;90.39;99765.84;5080844;28;20037;-69
2023/10/25 06:18:10;;;;;;;4.47;2.60;;;;;;;9.70;90.28;99773.69;5069275;28;20080;-69
2023/10/25 06:20:36;;;;;;;3.10;2.55;;;;;;;9.69;90.43;99766.69;5084047;28;20035;-69
2023/10/25 06:23:01;;;;;;;8.05;3.15;;;;;;;9.71;90.04;99770.09;5082237;28;20028;-69
2023/10/25 06:25:29;;;;;;;5.72;3.15;;;;;;;9.71;90.20;99757.75;5076901;28;20020;-69
2023/10/25 06:27:56;;;;;;;5.85;2.75;;;;;;;9.74;90.28;99751.44;5083746;28;20020;-69
2023/10/25 06:30:21;;;;;;;5.07;2.38;;;;;;;9.77;90.55;99748.66;5072171;28;20032;-69
2023/10/25 06:32:47;;;;;;;4.70;2.05;;;;;;;9.79;90.13;99743.28;5076468;28;20036;-69
2023/10/25 06:35:12;;;;;;;6.03;2.88;;;;;;;9.81;90.12;99734.34;5082296;28;20062;-69
2023/10/25 06:37:38;;;;;;;4.75;2.63;;;;;;;9.83;90.12;99731.63;5083830;28;20035;-69
2023/10/25 06:40:04;;;;;;;9.27;3.10;;;;;;;9.95;89.20;99723.03;5083630;28;20043;-69
2023/10/25 06:42:29;;;;;;;6.47;2.75;;;;;;;9.99;89.31;99724.56;5078399;28;20523;-69
2023/10/25 06:44:55;;;;;;;3.95;2.70;;;;;;;10.01;89.22;99714.75;5079785;28;20063;-69
2023/10/25 06:47:21;;;;;;;3.53;2.45;;;;;;;10.04;88.85;99716.41;5081340;28;20472;-69
2023/10/25 06:49:46;;;;;;;5.50;2.50;;;;;;;10.06;89.06;99714.50;5082149;28;20490;-69
2023/10/25 06:52:12;;;;;;;4.28;2.25;;;;;;;10.09;89.05;99715.19;5078579;28;20031;-69
2023/10/25 06:54:38;;;;;;;6.07;3.63;;;;;;;10.09;88.88;99715.19;5080019;28;20023;-69
2023/10/25 06:57:04;;;;;;;4.68;2.42;;;;;;;10.12;89.03;99706.25;5080224;28;20772;-69
2023/10/25 06:59:29;;;;;;;6.93;2.20;;;;;;;10.14;89.02;99689.38;5080225;28;20028;-69
2023/10/25 07:02:23;;;;;;;4.43;2.50;;;;;;;10.16;88.54;99687.47;5081001;28;20016;-70
2023/10/25 07:05:08;;;;;;;3.03;2.50;;;;;;;10.19;88.35;99678.53;5079730;28;20415;-70
2023/10/25 07:07:34;;;;;;;5.30;2.70;;;;;;;10.21;88.43;99681.94;5080261;28;20048;-70
2023/10/25 07:10:00;;;;;;;4.40;2.63;;;;;;;10.25;88.66;99682.66;5071399;28;20066;-70
2023/10/25 07:12:25;;;;;;;5.20;2.38;;;;;;;10.26;88.69;99677.31;5079428;28;20021;-69
2023/10/25 07:14:51;;;;;;;9.02;2.95;;;;;;;10.30;88.42;99670.03;5079762;28;20387;-69
2023/10/25 07:17:16;;;;;;;4.90;2.80;;;;;;;10.33;88.29;99675.16;5083715;28;20024;-69
2023/10/25 07:19:43;;;;;;;7.05;2.83;;;;;;;10.34;88.12;99666.28;5083061;28;20028;-69
2023/10/25 07:22:09;;;;;;;6.93;3.17;;;;;;;10.36;88.42;99670.53;5082257;28;20036;-69
2023/10/25 07:24:35;;;;;;;5.13;2.50;;;;;;;10.42;87.90;99664.91;5076644;28;20036;-69
2023/10/25 07:27:00;;;;;;;7.75;2.80;;;;;;;10.39;88.26;99659.78;5080667;28;20027;-69
2023/10/25 07:29:25;;;;;;;3.83;2.80;;;;;;;10.41;88.06;99654.44;5083022;28;20466;-69
2023/10/25 07:31:51;;;;;;;7.32;2.83;;;;;;;10.42;87.76;99661.41;5081840;28;20484;-69
2023/10/25 07:34:17;;;;;;;3.63;2.72;;;;;;;10.43;87.77;99665.75;5079802;28;20032;-69
2023/10/25 07:36:42;;;;;;;5.63;3.10;;;;;;;10.45;87.94;99662.09;5079670;28;20400;-69
2023/10/25 07:39:08;;;;;;;5.80;2.83;;;;;;;10.45;87.74;99664.72;5079536;28;20028;-69
2023/10/25 07:41:33;;;;;;;6.50;2.85;;;;;;;10.47;87.97;99657.53;5081896;28;20020;-69
2023/10/25 07:44:00;;;;;;;3.03;2.63;;;;;;;10.48;88.28;99647.81;5081438;28;20177;-69
2023/10/25 07:46:26;;;;;;;6.93;3.03;;;;;;;10.48;88.02;99645.19;5085476;28;20531;-69
2023/10/25 07:48:51;;;;;;;5.53;2.40;;;;;;;10.55;88.24;99643.03;5083833;28;20025;-72
2023/10/25 07:51:16;;;;;;;7.18;2.60;;;;;;;10.59;87.47;99637.50;5082621;28;20055;-69
2023/10/25 07:53:41;;;;;;;3.40;2.42;;;;;;;10.61;87.90;99638.22;5088224;28;20472;-70
2023/10/25 07:56:07;;;;;;;2.95;2.75;;;;;;;10.64;88.10;99630.13;5078224;28;20040;-70
2023/10/25 07:58:32;;;;;;;7.38;2.88;;;;;;;10.66;88.01;99625.59;5081305;28;20032;-70
2023/10/25 08:01:04;;;;;;;5.18;2.90;;;;;;;10.71;87.90;99620.03;5087087;28;20027;-70
2023/10/25 08:03:29;;;;;;;7.03;2.47;;;;;;;10.75;88.59;99616.25;5081610;28;20033;-70
2023/10/25 08:05:56;;;;;;;4.13;2.17;;;;;;;10.77;88.32;99605.59;5086688;28;20040;-69
2023/10/25 08:08:21;;;;;;;4.15;2.38;;;;;;;10.93;87.94;99603.72;5087355;28;20020;-70
2023/10/25 08:10:47;;;;;;;4.97;2.42;;;;;;;11.03;87.36;99596.06;5086014;28;20043;-69
2023/10/25 08:13:12;;;;;;;4.35;2.38;;;;;;;11.08;86.26;99591.34;5078045;28;20028;-69
2023/10/25 08:15:37;;;;;;;5.18;2.53;;;;;;;11.14;86.92;99596.25;5083280;28;20109;-69
2023/10/25 08:18:03;;;;;;;4.70;2.40;;;;;;;11.20;86.46;99588.78;5090558;28;20368;-69
2023/10/25 08:20:28;;;;;;;4.28;2.80;;;;;;;11.26;86.69;99586.69;5083106;28;20024;-69
2023/10/25 08:22:55;;;;;;;4.32;2.33;;;;;;;11.31;85.49;99585.44;5083063;28;20101;-70
2023/10/25 08:25:21;;;;;;;3.38;2.33;;;;;;;11.33;85.25;99580.94;5078290;28;20012;-70
2023/10/25 08:27:46;;;;;;;2.72;2.40;;;;;;;11.39;85.32;99577.88;5083754;28;20047;-70
2023/10/25 08:30:12;;;;;;;4.35;2.22;;;;;;;11.43;85.17;99579.41;5085608;28;20452;-70
2023/10/25 08:32:38;;;;;;;5.68;2.65;;;;;;;11.46;84.49;99578.34;5081773;28;20107;-70
2023/10/25 08:35:04;;;;;;;7.45;2.53;;;;;;;11.48;84.59;99565.88;5075249;28;20089;-70
2023/10/25 08:37:29;;;;;;;2.85;2.42;;;;;;;11.56;84.73;99570.66;5075336;28;20024;-70
2023/10/25 08:39:55;;;;;;;2.55;2.10;;;;;;;11.58;85.39;99572.25;5083700;28;20089;-70
2023/10/25 08:42:21;;;;;;;3.95;2.47;;;;;;;11.61;85.33;99566.78;5081811;28;20032;-70
2023/10/25 08:44:46;;;;;;;4.97;2.40;;;;;;;11.60;84.67;99559.75;5077062;28;20027;-70
2023/10/25 08:47:11;;;;;;;6.13;2.65;;;;;;;11.59;84.17;99554.56;5082960;28;20020;-70
2023/10/25 08:49:38;;;;;;;4.47;2.55;;;;;;;11.58;85.07;99550.25;5080905;28;21346;-71
2023/10/25 08:52:03;;;;;;;3.95;2.70;;;;;;;11.56;84.30;99541.53;5076716;28;20391;-70
2023/10/25 08:54:29;;;;;;;4.97;2.80;;;;;;;11.57;84.07;99541.44;5083519;28;20028;-71
2023/10/25 08:56:55;;;;;;;4.32;2.78;;;;;;;11.63;84.26;99545.50;5083160;28;20045;-70
2023/10/25 08:59:20;;;;;;;3.00;2.65;;;;;;;11.66;84.17;99543.50;5082541;28;20025;-70
2023/10/25 09:01:46;;;;;;;7.30;2.80;;;;;;;11.69;84.07;99537.13;5087247;28;20055;-70
2023/10/25 09:04:12;;;;;;;4.65;2.88;;;;;;;11.68;84.41;99546.03;5082079;28;20041;-70
2023/10/25 09:06:37;;;;;;;7.45;3.10;;;;;;;11.68;84.67;99530.16;5083178;28;20021;-70
2023/10/25 09:09:05;;;;;;;5.10;3.22;;;;;;;11.68;83.84;99524.84;5086157;28;20144;-70
2023/10/25 09:11:57;;;;;;;3.75;2.78;;;;;;;11.75;84.41;99512.94;5085814;28;20039;-69
2023/10/25 09:14:22;;;;;;;4.57;2.78;;;;;;;11.69;84.22;99518.59;5080472;28;20044;-69
2023/10/25 09:16:48;;;;;;;5.32;3.15;;;;;;;11.67;84.32;99510.78;5082452;28;20028;-69
2023/10/25 09:19:19;;;;;;;4.43;2.85;;;;;;;11.67;84.77;99507.28;5082667;28;20027;-69
2023/10/25 09:21:44;;;;;;;4.95;2.78;;;;;;;11.62;84.66;99504.94;5081676;28;20411;-70
2023/10/25 09:24:09;;;;;;;6.13;3.70;;;;;;;11.60;84.78;99495.38;5076810;28;20028;-70
2023/10/25 09:26:39;;;;;;;5.25;3.60;;;;;;;11.58;85.18;99498.16;5081993;28;20038;-69
2023/10/25 09:29:05;;;;;;;3.67;3.22;;;;;;;11.59;84.85;99497.19;5082987;28;20504;-70
2023/10/25 09:31:31;;;;;;;8.75;4.38;;;;;;;11.53;85.27;99502.91;5084530;28;20127;-69
2023/10/25 09:33:58;;;;;;;9.27;4.43;;;;;;;11.49;85.79;99515.47;5084955;28;20064;-69
2023/10/25 09:36:24;;;;;;;7.53;4.43;;;;;;;11.52;85.75;99513.56;5082149;28;20109;-70
2023/10/25 09:38:51;;;;;;;8.02;4.53;;;;;;;11.52;86.21;99509.16;5081823;28;20028;-70
2023/10/25 09:41:19;;;;;;;5.22;4.63;;;;;;;11.51;86.52;99502.13;5082302;28;20034;-70
2023/10/25 09:43:50;;;;;;;6.30;4.50;;;;;;;11.46;87.01;99497.13;5084753;28;20028;-70
2023/10/25 09:46:20;;;;;;;11.00;4.80;;;;;;;11.41;86.54;99483.34;5082234;28;20024;-70
2023/10/25 09:48:58;;;;;;;6.63;4.63;;;;;;;11.41;87.40;99474.56;5085151;28;20541;-69
2023/10/25 09:51:47;;;;;;;8.23;5.00;;;;;;;11.38;88.04;99461.56;5083332;28;20047;-69
2023/10/25 09:54:13;;;;;;;8.70;4.68;;;;;;;11.34;88.06;99457.41;5068863;28;20039;-69
2023/10/25 09:56:39;;;;;;;6.18;4.32;;;;;;;11.30;88.26;99447.97;5083354;28;20028;-69
2023/10/25 09:59:08;;;;;;;8.95;5.50;;;;;;;11.29;87.97;99454.22;5084631;28;20028;-70
2023/10/25 10:01:34;;;;;;;8.73;5.05;;;;;;;11.30;88.43;99450.63;5083109;28;20038;-70
2023/10/25 10:04:11;;;;;;;6.43;4.63;;;;;;;11.31;88.68;99447.03;5081033;28;20073;-70
2023/10/25 10:06:52;;;;;;;6.55;4.60;;;;;;;11.30;89.02;99451.47;5079999;28;20124;-70
2023/10/25 10:09:34;;;;;;;7.68;5.25;;;;;;;11.30;88.63;99450.63;5083990;28;20493;-70
2023/10/25 10:12:06;;;;;;;7.65;5.40;;;;;;;11.21;88.92;99444.97;5080867;28;20060;-70
2023/10/25 10:14:35;;;;;;;7.13;4.97;;;;;;;11.18;90.20;99437.22;5080760;28;20111;-70
2023/10/25 10:17:19;;;;;;;7.97;5.13;;;;;;;11.21;89.41;99439.69;5080493;28;20425;-70
2023/10/25 10:19:46;;;;;;;7.70;5.40;;;;;;;11.17;90.17;99430.25;5081248;28;20365;-69
2023/10/25 10:22:16;;;;;;;9.48;5.65;;;;;;;11.15;90.00;99429.50;5083489;28;20031;-70
2023/10/25 10:25:00;;;;;;;9.30;5.20;;;;;;;11.17;90.61;99411.72;5074119;28;20039;-70
2023/10/25 10:27:40;;;;;;;8.20;5.30;;;;;;;11.17;90.27;99402.94;5073180;28;20522;-70
2023/10/25 10:30:29;;;;;;;9.80;5.93;;;;;;;11.23;91.04;99398.09;5081784;28;20068;-70
2023/10/25 10:32:57;;;;;;;8.90;6.32;;;;;;;11.18;90.54;99386.97;5080239;28;20047;-70
2023/10/25 10:35:24;;;;;;;7.55;5.28;;;;;;;11.20;90.71;99387.75;5080443;28;20032;-70
2023/10/25 10:37:56;;;;;;;7.03;5.22;;;;;;;11.20;90.69;99385.09;5080279;28;20081;-71
2023/10/25 10:40:21;;;;;;;7.18;5.15;;;;;;;11.20;90.80;99377.16;5082956;28;20093;-70
2023/10/25 10:42:46;;;;;;;7.05;5.10;;;;;;;11.20;91.20;99369.22;5081948;28;20024;-70
2023/10/25 10:45:20;;;;;;;7.47;5.40;;;;;;;11.22;91.27;99367.31;5087025;28;20030;-70
2023/10/25 10:47:53;;;;;;;9.05;5.10;;;;;;;11.22;90.55;99359.38;5073457;28;20031;-71
2023/10/25 10:50:20;;;;;;;7.03;5.25;;;;;;;11.20;90.47;99353.34;5080474;28;20071;-70
2023/10/25 10:52:47;;;;;;;8.30;5.50;;;;;;;11.23;90.65;99354.94;5069649;28;20031;-70
2023/10/25 10:55:15;;;;;;;6.57;5.15;;;;;;;11.25;91.28;99347.75;5079265;28;20108;-70
2023/10/25 10:57:40;;;;;;;6.10;4.78;;;;;;;11.30;90.78;99337.72;5082005;28;20112;-70
2023/10/25 11:00:10;;;;;;;9.38;5.47;;;;;;;11.32;91.16;99332.31;5080990;28;20107;-70
2023/10/25 11:02:36;;;;;;;9.60;5.05;;;;;;;11.34;91.20;99325.13;5081140;28;20044;-69
2023/10/25 11:05:03;;;;;;;6.78;4.90;;;;;;;11.36;90.90;99321.41;5076646;28;20044;-69
2023/10/25 11:07:28;;;;;;;5.30;4.13;;;;;;;11.39;90.77;99320.38;5083857;28;20372;-69
2023/10/25 11:09:54;;;;;;;6.72;4.68;;;;;;;11.39;90.99;99307.97;5081721;28;20024;-69
2023/10/25 11:12:20;;;;;;;8.93;4.63;;;;;;;11.40;90.69;99304.38;5080433;28;20123;-69
2023/10/25 11:14:47;;;;;;;7.00;4.57;;;;;;;11.44;90.70;99308.50;5080454;28;20527;-69
2023/10/25 11:17:13;;;;;;;5.45;4.25;;;;;;;11.45;90.99;99301.41;5082198;28;20035;-69
2023/10/25 11:19:40;;;;;;;6.63;4.30;;;;;;;11.45;90.76;99296.97;5083801;28;20035;-69
2023/10/25 11:22:06;;;;;;;7.57;4.25;;;;;;;11.45;91.14;99281.09;5081347;28;20016;-69
2023/10/25 11:24:33;;;;;;;6.53;4.13;;;;;;;11.48;90.97;99287.97;5082681;28;20038;-69
2023/10/25 11:27:00;;;;;;;5.30;4.32;;;;;;;11.52;90.93;99286.81;5083247;28;20410;-70
2023/10/25 11:29:26;;;;;;;5.95;4.25;;;;;;;11.52;90.75;99273.59;5080379;28;20086;-69
2023/10/25 11:31:55;;;;;;;6.40;4.50;;;;;;;11.56;91.24;99269.75;5079125;28;20061;-69
2023/10/25 11:34:21;;;;;;;7.00;4.20;;;;;;;11.59;90.95;99258.97;5080967;28;20388;-68